| time (UTC) | temp C | wind direction | speed KPH | gust KPH | rain 1hr cm | rain 24hr cm | rain mn cm | humidity % | barometer mb |
| 20260508000036 | 17 | 207 | 3.2 | 14.5 | 0.00 | 0.00 | 0.00 | 58 | 1000.8 |
| 20260507234506 | 17 | 185 | 4.8 | 14.5 | 0.00 | 0.00 | 0.00 | 59 | 1000.9 |
| 20260507233002 | 17 | 178 | 6.4 | 14.5 | 0.00 | 0.00 | 0.00 | 61 | 1001.0 |
| 20260507231531 | 17 | 183 | 6.4 | 16.1 | 0.00 | 0.00 | 0.00 | 63 | 1001.1 |
| 20260507230029 | 17 | 261 | 8.0 | 14.5 | 0.00 | 0.00 | 0.00 | 65 | 1001.2 |
| 20260507224600 | 16 | 258 | 8.0 | 16.1 | 0.00 | 0.00 | 0.00 | 66 | 1001.3 |
| 20260507223058 | 17 | 250 | 8.0 | 16.1 | 0.00 | 0.00 | 0.00 | 65 | 1001.3 |
| 20260507221524 | 16 | 227 | 6.4 | 14.5 | 0.00 | 0.00 | 0.00 | 66 | 1001.4 |
| 20260507220022 | 16 | 251 | 8.0 | 12.9 | 0.00 | 0.00 | 0.00 | 68 | 1001.5 |
| 20260507214524 | 16 | 223 | 4.8 | 12.9 | 0.00 | 0.00 | 0.00 | 67 | 1001.7 |
| 20260507213019 | 16 | 205 | 6.4 | 11.3 | 0.00 | 0.00 | 0.00 | 68 | 1001.8 |
| 20260507211516 | 16 | 218 | 8.0 | 16.1 | 0.00 | 0.00 | 0.00 | 69 | 1002.1 |
| 20260507210013 | 15 | 193 | 6.4 | 17.7 | 0.00 | 0.00 | 0.00 | 71 | 1002.2 |
| 20260507204509 | 15 | 232 | 8.0 | 16.1 | 0.00 | 0.00 | 0.00 | 70 | 1002.3 |
| 20260507203010 | 15 | 202 | 6.4 | 14.5 | 0.00 | 0.00 | 0.00 | 72 | 1002.5 |
| 20260507201504 | 15 | 213 | 4.8 | 14.5 | 0.00 | 0.00 | 0.00 | 73 | 1002.5 |
| 20260507200001 | 14 | 103 | 3.2 | 12.9 | 0.00 | 0.00 | 0.00 | 73 | 1002.5 |
| 20260507194532 | 14 | 224 | 6.4 | 12.9 | 0.00 | 0.00 | 0.00 | 72 | 1002.6 |
| 20260507193029 | 13 | 176 | 8.0 | 14.5 | 0.00 | 0.00 | 0.00 | 75 | 1002.9 |
| 20260507191524 | 13 | 264 | 4.8 | 11.3 | 0.00 | 0.00 | 0.00 | 77 | 1003.0 |
| 20260507190021 | 12 | 207 | 4.8 | 9.7 | 0.00 | 0.00 | 0.00 | 79 | 1003.0 |
| 20260507184518 | 12 | 261 | 4.8 | 9.7 | 0.00 | 0.00 | 0.00 | 81 | 1003.1 |
| 20260507183016 | 11 | 273 | 6.4 | 12.9 | 0.00 | 0.00 | 0.00 | 83 | 1003.2 |
| 20260507181506 | 11 | 237 | 4.8 | 11.3 | 0.00 | 0.00 | 0.00 | 84 | 1003.3 |
| 20260507180005 | 10 | 267 | 6.4 | 14.5 | 0.00 | 0.00 | 0.00 | 86 | 1003.4 |
| 20260507174504 | 10 | 19 | 8.0 | 16.1 | 0.00 | 0.00 | 0.00 | 87 | 1003.4 |
| 20260507173002 | 11 | 201 | 4.8 | 9.7 | 0.00 | 0.00 | 0.00 | 86 | 1003.4 |
| 20260507171606 | 11 | 250 | 4.8 | 9.7 | 0.00 | 0.00 | 0.00 | 87 | 1003.3 |
| 20260507170056 | 10 | 189 | 3.2 | 11.3 | 0.00 | 0.00 | 0.00 | 87 | 1003.3 |
| 20260507164554 | 10 | 172 | 3.2 | 9.7 | 0.00 | 0.00 | 0.00 | 90 | 1003.3 |
| 20260507163051 | 10 | 196 | 1.6 | 8.0 | 0.00 | 0.00 | 0.00 | 91 | 1003.3 |
| 20260507161552 | 10 | 198 | 3.2 | 9.7 | 0.00 | 0.00 | 0.00 | 92 | 1003.2 |
| 20260507160054 | 10 | 213 | 1.6 | 4.8 | 0.00 | 0.00 | 0.00 | 94 | 1003.4 |
| 20260507154550 | 9 | 246 | 0.0 | 4.8 | 0.00 | 0.00 | 0.00 | 96 | 1003.3 |
| 20260507153050 | 8 | 16 | 1.6 | 4.8 | 0.00 | 0.00 | 0.00 | 96 | 1003.4 |
| 20260507151557 | 8 | 5 | 3.2 | 6.4 | 0.00 | 0.00 | 0.00 | 96 | 1003.4 |
| 20260507150058 | 8 | 11 | 3.2 | 6.4 | 0.00 | 0.00 | 0.00 | 96 | 1003.4 |
| 20260507144615 | 8 | 19 | 3.2 | 6.4 | 0.00 | 0.00 | 0.00 | 96 | 1003.2 |
| 20260507143056 | 8 | 32 | 3.2 | 6.4 | 0.00 | 0.00 | 0.00 | 96 | 1003.3 |
| 20260507141524 | 8 | 54 | 4.8 | 8.0 | 0.00 | 0.00 | 0.00 | 96 | 1003.2 |
| 20260507140024 | 8 | 22 | 4.8 | 8.0 | 0.00 | 0.00 | 0.00 | 96 | 1002.9 |
| 20260507134520 | 8 | 35 | 6.4 | 9.7 | 0.00 | 0.00 | 0.00 | 96 | 1002.8 |
| 20260507133020 | 8 | 24 | 4.8 | 9.7 | 0.00 | 0.00 | 0.00 | 96 | 1002.8 |
| 20260507131518 | 8 | 15 | 4.8 | 8.0 | 0.00 | 0.00 | 0.00 | 95 | 1002.8 |
| 20260507130018 | 8 | 38 | 6.4 | 12.9 | 0.00 | 0.00 | 0.00 | 95 | 1003.0 |
| 20260507124515 | 8 | 54 | 4.8 | 11.3 | 0.00 | 0.00 | 0.00 | 95 | 1002.9 |
| 20260507123014 | 8 | 17 | 4.8 | 12.9 | 0.00 | 0.00 | 0.00 | 95 | 1003.0 |
| 20260507121512 | 8 | 18 | 8.0 | 12.9 | 0.00 | 0.00 | 0.00 | 95 | 1003.1 |
| 20260507120010 | 8 | 16 | 6.4 | 16.1 | 0.00 | 0.00 | 0.00 | 95 | 1003.2 |
| 20260507114507 | 8 | 15 | 9.7 | 14.5 | 0.00 | 0.00 | 0.00 | 95 | 1003.3 |
| 20260507113010 | 8 | 15 | 8.0 | 12.9 | 0.00 | 0.00 | 0.00 | 95 | 1003.4 |
| 20260507111501 | 8 | 360 | 11.3 | 16.1 | 0.00 | 0.00 | 0.00 | 94 | 1003.5 |
| 20260507110059 | 8 | 14 | 6.4 | 12.9 | 0.00 | 0.00 | 0.00 | 94 | 1003.5 |
| 20260507104557 | 8 | 15 | 6.4 | 14.5 | 0.00 | 0.00 | 0.00 | 95 | 1003.5 |
| 20260507103052 | 8 | 12 | 6.4 | 12.9 | 0.00 | 0.00 | 0.00 | 95 | 1003.8 |
| 20260507101553 | 8 | 360 | 6.4 | 9.7 | 0.00 | 0.00 | 0.00 | 95 | 1003.8 |
| 20260507100050 | 8 | 286 | 6.4 | 12.9 | 0.00 | 0.00 | 0.00 | 94 | 1003.8 |
| 20260507094549 | 8 | 17 | 6.4 | 14.5 | 0.00 | 0.00 | 0.00 | 94 | 1003.8 |
| 20260507093046 | 8 | 5 | 6.4 | 12.9 | 0.00 | 0.00 | 0.00 | 93 | 1004.0 |
| 20260507091542 | 9 | 276 | 6.4 | 11.3 | 0.00 | 0.00 | 0.00 | 93 | 1004.1 |
| 20260507090039 | 9 | 261 | 4.8 | 12.9 | 0.00 | 0.00 | 0.00 | 93 | 1004.2 |
| 20260507084538 | 9 | 9 | 6.4 | 11.3 | 0.00 | 0.00 | 0.00 | 93 | 1004.3 |
| 20260507083033 | 9 | 9 | 6.4 | 12.9 | 0.00 | 0.00 | 0.00 | 92 | 1004.2 |
| 20260507081531 | 9 | 15 | 4.8 | 11.3 | 0.00 | 0.00 | 0.00 | 92 | 1004.2 |
| 20260507080032 | 10 | 277 | 3.2 | 6.4 | 0.00 | 0.00 | 0.00 | 92 | 1004.2 |
| 20260507074628 | 10 | 266 | 4.8 | 11.3 | 0.00 | 0.00 | 0.00 | 92 | 1004.2 |
| 20260507073026 | 10 | 278 | 4.8 | 9.7 | 0.00 | 0.00 | 0.00 | 92 | 1004.2 |
| 20260507071525 | 10 | 20 | 3.2 | 11.3 | 0.00 | 0.00 | 0.00 | 92 | 1004.1 |
| 20260507070022 | 10 | 360 | 6.4 | 14.5 | 0.00 | 0.00 | 0.00 | 91 | 1004.1 |
| 20260507064523 | 10 | 14 | 6.4 | 11.3 | 0.00 | 0.00 | 0.00 | 91 | 1004.1 |
| 20260507063019 | 10 | 12 | 0.0 | 4.8 | 0.00 | 0.00 | 0.00 | 92 | 1004.2 |
| 20260507061519 | 10 | 12 | 1.6 | 3.2 | 0.00 | 0.00 | 0.00 | 92 | 1004.3 |
| 20260507060021 | 10 | 244 | 0.0 | 1.6 | 0.00 | 0.00 | 0.00 | 91 | 1004.2 |
| 20260507054517 | 10 | 244 | 0.0 | 3.2 | 0.00 | 0.00 | 0.00 | 90 | 1004.3 |
| 20260507053014 | 10 | 274 | 1.6 | 3.2 | 0.00 | 0.00 | 0.00 | 90 | 1004.4 |
| 20260507051515 | 10 | 274 | 0.0 | 1.6 | 0.00 | 0.00 | 0.00 | 89 | 1004.3 |
| 20260507050014 | 10 | 274 | 0.0 | 1.6 | 0.00 | 0.00 | 0.00 | 89 | 1004.3 |
| 20260507044530 | 10 | 16 | 3.2 | 4.8 | 0.00 | 0.00 | 0.00 | 88 | 1004.4 |
| 20260507043043 | 11 | 360 | 3.2 | 8.0 | 0.00 | 0.00 | 0.00 | 87 | 1004.3 |
| 20260507041542 | 11 | 285 | 3.2 | 6.4 | 0.00 | 0.00 | 0.00 | 86 | 1004.2 |
| 20260507040013 | 11 | 22 | 3.2 | 8.0 | 0.00 | 0.00 | 0.00 | 86 | 1004.1 |
| 20260507034511 | 12 | 9 | 3.2 | 4.8 | 0.00 | 0.00 | 0.00 | 86 | 1003.9 |
| 20260507033043 | 12 | 282 | 1.6 | 4.8 | 0.00 | 0.00 | 0.00 | 85 | 1003.7 |
| 20260507031540 | 12 | 250 | 3.2 | 6.4 | 0.00 | 0.00 | 0.00 | 83 | 1003.6 |
| 20260507030038 | 13 | 283 | 1.6 | 6.4 | 0.00 | 0.00 | 0.00 | 81 | 1003.5 |
| 20260507024541 | 14 | 261 | 1.6 | 9.7 | 0.00 | 0.00 | 0.00 | 80 | 1003.4 |
| 20260507023036 | 15 | 226 | 6.4 | 12.9 | 0.00 | 0.00 | 0.00 | 78 | 1003.5 |
| 20260507021536 | 15 | 225 | 3.2 | 11.3 | 0.00 | 0.00 | 0.00 | 77 | 1003.5 |
| 20260507020043 | 16 | 258 | 4.8 | 12.9 | 0.00 | 0.00 | 0.00 | 75 | 1003.4 |
| 20260507014535 | 16 | 360 | 4.8 | 12.9 | 0.00 | 0.00 | 0.00 | 76 | 1003.6 |
| 20260507013033 | 16 | 242 | 4.8 | 14.5 | 0.00 | 0.00 | 0.00 | 75 | 1003.5 |
| 20260507011531 | 17 | 228 | 6.4 | 14.5 | 0.00 | 0.00 | 0.00 | 73 | 1003.6 |
| 20260507010002 | 17 | 227 | 4.8 | 12.9 | 0.00 | 0.00 | 0.00 | 72 | 1003.7 |
| 20260507004501 | 17 | 257 | 4.8 | 12.9 | 0.00 | 0.00 | 0.00 | 70 | 1003.8 |
| 20260507003055 | 17 | 250 | 6.4 | 11.3 | 0.00 | 0.00 | 0.00 | 70 | 1003.7 |
| 20260507001553 | 17 | 211 | 4.8 | 16.1 | 0.00 | 0.00 | 0.00 | 73 | 1003.6 |